createdAt,value
2023-04-25T00:01:27.738Z,11.20
2023-04-25T00:04:02.596Z,11.20
2023-04-25T00:06:38.173Z,11.20
2023-04-25T00:09:12.156Z,11.20
2023-04-25T00:11:46.887Z,11.20
2023-04-25T00:14:20.198Z,11.20
2023-04-25T00:16:54.907Z,11.20
2023-04-25T00:19:29.295Z,11.20
2023-04-25T00:22:02.909Z,11.20
2023-04-25T00:24:36.228Z,11.30
2023-04-25T00:27:10.920Z,11.30
2023-04-25T00:29:44.348Z,11.30
2023-04-25T00:32:17.756Z,11.20
2023-04-25T00:34:52.185Z,11.20
2023-04-25T00:37:25.657Z,11.20
2023-04-25T00:40:00.834Z,11.20
2023-04-25T00:42:36.979Z,11.20
2023-04-25T00:45:15.372Z,11.20
2023-04-25T00:47:49.638Z,11.20
2023-04-25T00:50:23.164Z,11.20
2023-04-25T00:52:56.764Z,11.20
2023-04-25T00:55:30.394Z,11.20
2023-04-25T00:58:05.288Z,11.20
2023-04-25T01:00:39.297Z,11.20
2023-04-25T01:03:12.883Z,11.20
2023-04-25T01:05:46.533Z,11.30
2023-04-25T01:08:19.894Z,11.20
2023-04-25T01:10:53.218Z,11.20
2023-04-25T01:13:28.301Z,11.20
2023-04-25T01:16:02.381Z,11.20
2023-04-25T01:18:36.644Z,11.20
2023-04-25T01:21:12.623Z,11.20
2023-04-25T01:23:46.674Z,11.20
2023-04-25T01:26:22.273Z,11.20
2023-04-25T01:28:56.130Z,11.20
2023-04-25T01:31:30.646Z,11.10
2023-04-25T01:34:04.197Z,11.10
2023-04-25T01:36:39.189Z,11.10
2023-04-25T01:39:13.305Z,11.00
2023-04-25T01:41:47.505Z,11.10
2023-04-25T01:44:21.011Z,11.10
2023-04-25T01:46:55.979Z,11.00
2023-04-25T01:49:29.447Z,11.00
2023-04-25T01:52:04.855Z,11.00
2023-04-25T01:54:38.350Z,11.00
2023-04-25T01:57:11.901Z,11.00
2023-04-25T01:59:46.857Z,11.00
2023-04-25T02:02:45.866Z,11.00
2023-04-25T02:05:41.442Z,11.00
2023-04-25T02:08:20.100Z,11.00
2023-04-25T02:10:53.590Z,11.10
2023-04-25T02:13:27.058Z,11.10
2023-04-25T02:16:03.376Z,11.00
2023-04-25T02:18:38.558Z,11.10
2023-04-25T02:21:13.653Z,11.10
2023-04-25T02:23:50.212Z,11.10
2023-04-25T02:26:24.748Z,11.00
2023-04-25T02:28:58.998Z,11.00
2023-04-25T02:31:32.482Z,11.10
2023-04-25T02:34:06.461Z,11.10
2023-04-25T02:36:42.982Z,11.10
2023-04-25T02:39:17.835Z,11.00
2023-04-25T02:41:51.289Z,11.00
2023-04-25T02:44:24.717Z,11.00
2023-04-25T02:46:58.193Z,11.00
2023-04-25T02:49:31.694Z,11.00
2023-04-25T02:52:05.449Z,11.00
2023-04-25T02:54:40.537Z,11.00
2023-04-25T02:57:14.170Z,11.00
2023-04-25T02:59:47.642Z,10.90
2023-04-25T03:02:21.596Z,10.80
2023-04-25T03:04:55.175Z,10.80
2023-04-25T03:07:28.704Z,10.80
2023-04-25T03:10:03.580Z,10.80
2023-04-25T03:12:39.269Z,10.80
2023-04-25T03:15:12.959Z,10.80
2023-04-25T03:17:46.553Z,10.80
2023-04-25T03:20:20.107Z,10.80
2023-04-25T03:22:54.500Z,10.80
2023-04-25T03:25:29.404Z,10.70
2023-04-25T03:28:03.028Z,10.60
2023-04-25T03:30:36.545Z,10.60
2023-04-25T03:33:10.276Z,10.60
2023-04-25T03:35:44.698Z,10.60
2023-04-25T03:38:19.122Z,10.60
2023-04-25T03:40:54.777Z,10.50
2023-04-25T03:43:33.711Z,10.50
2023-04-25T03:46:12.060Z,10.50
2023-04-25T03:48:46.878Z,10.50
2023-04-25T03:51:26.747Z,10.40
2023-04-25T03:54:00.582Z,10.40
2023-04-25T03:56:54.140Z,10.40
2023-04-25T03:59:30.452Z,10.40
2023-04-25T04:02:04.122Z,10.40
2023-04-25T04:04:40.250Z,10.40
2023-04-25T04:07:14.181Z,10.40
2023-04-25T04:09:49.655Z,10.30
2023-04-25T04:12:32.497Z,10.40
2023-04-25T04:15:07.663Z,10.30
2023-04-25T04:17:42.750Z,10.30
2023-04-25T04:20:16.372Z,10.30
2023-04-25T04:22:50.047Z,10.30
2023-04-25T04:25:25.549Z,10.20
2023-04-25T04:28:29.604Z,10.30
2023-04-25T04:31:20.585Z,10.20
2023-04-25T04:33:54.610Z,10.20
2023-04-25T04:36:28.872Z,10.20
2023-04-25T04:39:04.314Z,10.20
2023-04-25T04:41:56.300Z,10.20
2023-04-25T04:45:02.649Z,10.20
2023-04-25T04:47:56.331Z,10.30
2023-04-25T04:50:49.782Z,10.30
2023-04-25T04:53:43.111Z,10.30
2023-04-25T04:56:48.886Z,10.30
2023-04-25T04:59:36.355Z,10.30
2023-04-25T05:02:31.633Z,10.30
2023-04-25T05:05:18.660Z,10.30
2023-04-25T05:08:07.782Z,10.20
2023-04-25T05:11:01.660Z,10.20
2023-04-25T05:13:42.929Z,10.20
2023-04-25T05:16:42.385Z,10.20
2023-04-25T05:19:55.332Z,10.20
2023-04-25T05:22:42.652Z,10.30
2023-04-25T05:25:34.260Z,10.30
2023-04-25T05:28:15.168Z,10.30
2023-04-25T05:31:04.803Z,10.30
2023-04-25T05:33:49.158Z,10.30
2023-04-25T05:36:24.474Z,10.30
2023-04-25T05:38:57.999Z,10.30
2023-04-25T05:41:51.406Z,10.30
2023-04-25T05:44:43.542Z,10.30
2023-04-25T05:47:32.675Z,10.40
2023-04-25T05:50:12.078Z,10.40
2023-04-25T05:53:19.034Z,10.30
2023-04-25T05:55:59.458Z,10.40
2023-04-25T05:58:34.420Z,10.30
2023-04-25T06:01:08.434Z,10.30
2023-04-25T06:03:44.120Z,10.40
2023-04-25T06:06:18.044Z,10.40
2023-04-25T06:08:52.943Z,10.40
2023-04-25T06:11:26.482Z,10.30
2023-04-25T06:13:59.970Z,10.30
2023-04-25T06:16:33.619Z,10.30
2023-04-25T06:19:07.136Z,10.30
2023-04-25T06:21:40.666Z,10.20
2023-04-25T06:24:16.811Z,10.20
2023-04-25T06:26:50.562Z,10.10
2023-04-25T06:29:24.113Z,10.10
2023-04-25T06:31:58.203Z,10.10
2023-04-25T06:34:31.812Z,10.10
2023-04-25T06:37:06.110Z,10.00
2023-04-25T06:39:41.515Z,10.00
2023-04-25T06:42:15.018Z,10.00
2023-04-25T06:44:56.805Z,10.00
2023-04-25T06:47:30.839Z,10.00
2023-04-25T06:50:04.546Z,10.00
2023-04-25T06:52:38.447Z,10.00
2023-04-25T06:55:13.430Z,10.00
2023-04-25T06:58:13.239Z,9.90
2023-04-25T07:01:00.678Z,9.80
2023-04-25T07:03:34.964Z,9.80
2023-04-25T07:06:14.097Z,9.70
2023-04-25T07:08:47.583Z,9.70
2023-04-25T07:11:22.475Z,9.70
2023-04-25T07:13:56.413Z,9.60
2023-04-25T07:16:30.377Z,9.50
2023-04-25T07:19:05.186Z,9.50
2023-04-25T07:21:38.696Z,9.50
2023-04-25T07:24:13.155Z,9.50
2023-04-25T07:26:52.968Z,9.50
2023-04-25T07:29:37.730Z,9.40
2023-04-25T07:32:13.359Z,9.40
2023-04-25T07:34:49.584Z,9.40
2023-04-25T07:37:23.053Z,9.40
2023-04-25T07:40:11.371Z,9.40
2023-04-25T07:42:51.479Z,9.30
2023-04-25T07:45:31.298Z,9.30
2023-04-25T07:48:05.518Z,9.30
2023-04-25T07:50:42.276Z,9.40
2023-04-25T07:53:16.234Z,9.40
2023-04-25T07:56:04.794Z,9.40
2023-04-25T07:58:42.566Z,9.50
2023-04-25T08:01:18.297Z,9.60
2023-04-25T08:03:58.458Z,9.60
2023-04-25T08:06:54.796Z,9.70
2023-04-25T08:09:36.443Z,9.70
2023-04-25T08:12:12.040Z,9.70
2023-04-25T08:14:46.977Z,9.70
2023-04-25T08:17:20.585Z,9.70
2023-04-25T08:19:54.162Z,9.80
2023-04-25T08:22:35.036Z,9.80
2023-04-25T08:25:28.782Z,9.80
2023-04-25T08:28:04.233Z,9.80
2023-04-25T08:30:39.841Z,9.80
2023-04-25T08:33:15.646Z,9.90
2023-04-25T08:36:09.187Z,9.80
2023-04-25T08:38:43.694Z,9.80
2023-04-25T08:41:20.538Z,9.90
2023-04-25T08:43:56.042Z,9.80
2023-04-25T08:46:33.308Z,9.80
2023-04-25T08:49:19.986Z,9.80
2023-04-25T08:51:54.866Z,9.80
2023-04-25T08:54:35.765Z,9.80
2023-04-25T08:57:11.860Z,9.80
2023-04-25T08:59:46.992Z,9.80
2023-04-25T09:02:22.766Z,9.80
2023-04-25T09:04:58.509Z,9.90
2023-04-25T09:07:32.020Z,10.00
2023-04-25T09:10:06.653Z,10.10
2023-04-25T09:12:43.377Z,10.10
2023-04-25T09:15:20.925Z,10.20
2023-04-25T09:18:14.814Z,10.20
2023-04-25T09:23:27.396Z,10.20
2023-04-25T09:26:01.001Z,10.20
2023-04-25T09:28:36.156Z,10.20
2023-04-25T09:31:12.855Z,10.20
2023-04-25T09:34:01.382Z,10.10
2023-04-25T09:36:37.132Z,10.20
2023-04-25T09:39:31.110Z,10.20
2023-04-25T09:42:17.965Z,10.30
2023-04-25T09:44:53.429Z,10.30
2023-04-25T09:47:29.578Z,10.20
2023-04-25T09:50:05.758Z,10.30
2023-04-25T09:52:39.306Z,10.20
2023-04-25T09:55:27.937Z,10.20
2023-04-25T09:58:06.980Z,10.30
2023-04-25T10:00:41.355Z,10.30
2023-04-25T10:03:28.558Z,10.30
2023-04-25T10:06:21.374Z,10.40
2023-04-25T10:08:56.984Z,10.50
2023-04-25T10:11:31.436Z,10.40
2023-04-25T10:14:05.024Z,10.40
2023-04-25T10:16:39.540Z,10.40
2023-04-25T10:19:13.593Z,10.30
2023-04-25T10:21:53.389Z,10.30
2023-04-25T10:24:27.907Z,10.30
2023-04-25T10:27:02.797Z,10.30
2023-04-25T10:29:37.354Z,10.30
2023-04-25T10:32:10.890Z,10.40
2023-04-25T10:34:48.131Z,10.40
2023-04-25T10:37:23.182Z,10.40
2023-04-25T10:39:56.748Z,10.40
2023-04-25T10:42:32.537Z,10.30
2023-04-25T10:45:08.579Z,10.30
2023-04-25T10:47:46.767Z,10.20
2023-04-25T10:50:22.462Z,10.30
2023-04-25T10:52:57.352Z,10.30
2023-04-25T10:55:53.885Z,10.40
2023-04-25T10:58:28.292Z,10.30
2023-04-25T11:01:03.174Z,10.40
2023-04-25T11:03:42.296Z,10.30
2023-04-25T11:06:24.594Z,10.40
2023-04-25T11:08:59.808Z,10.40
2023-04-25T11:11:33.303Z,10.40
2023-04-25T11:14:07.453Z,10.50
2023-04-25T11:16:41.181Z,10.50
2023-04-25T11:19:14.700Z,10.50
2023-04-25T11:21:48.400Z,10.60
2023-04-25T11:24:28.015Z,10.60
2023-04-25T11:27:03.328Z,10.70
2023-04-25T11:29:37.595Z,10.70
2023-04-25T11:32:11.536Z,10.60
2023-04-25T11:34:46.586Z,10.60
2023-04-25T11:37:20.078Z,10.60
2023-04-25T11:39:54.954Z,10.60
2023-04-25T11:42:28.512Z,10.50
2023-04-25T11:45:02.400Z,10.30
2023-04-25T11:47:36.395Z,10.30
2023-04-25T11:50:11.374Z,10.10
2023-04-25T11:52:46.735Z,10.00
2023-04-25T11:55:22.875Z,10.00
2023-04-25T11:57:56.467Z,9.80
2023-04-25T12:00:30.088Z,9.70
2023-04-25T12:03:04.216Z,9.70
2023-04-25T12:05:38.986Z,9.60
2023-04-25T12:08:13.981Z,9.50
2023-04-25T12:10:49.565Z,9.40
2023-04-25T12:13:25.674Z,9.40
2023-04-25T12:15:59.620Z,9.50
2023-04-25T12:18:33.356Z,9.50
2023-04-25T12:21:07.105Z,9.60
2023-04-25T12:23:42.688Z,9.60
2023-04-25T12:26:18.246Z,9.50
2023-04-25T12:28:51.971Z,9.40
2023-04-25T12:31:26.779Z,9.40
2023-04-25T12:34:00.219Z,9.40
2023-04-25T12:36:34.196Z,9.40
2023-04-25T12:39:08.983Z,9.30
2023-04-25T12:41:44.415Z,9.30
2023-04-25T12:44:18.189Z,9.30
2023-04-25T12:46:52.220Z,9.20
2023-04-25T12:49:26.492Z,9.20
2023-04-25T12:52:00.141Z,9.20
2023-04-25T12:54:33.614Z,9.30
2023-04-25T12:57:09.446Z,9.30
2023-04-25T12:59:43.010Z,9.30
2023-04-25T13:02:16.631Z,9.40
2023-04-25T13:04:50.255Z,9.30
2023-04-25T13:07:24.087Z,9.30
2023-04-25T13:09:57.686Z,9.30
2023-04-25T13:12:32.657Z,9.30
2023-04-25T13:15:08.030Z,9.40
2023-04-25T13:17:41.604Z,9.40
2023-04-25T13:20:16.687Z,9.50
2023-04-25T13:22:50.803Z,9.50
2023-04-25T13:25:24.449Z,9.40
2023-04-25T13:27:59.384Z,9.40
2023-04-25T13:30:32.887Z,9.40
2023-04-25T13:33:07.832Z,9.40
2023-04-25T13:35:44.247Z,9.40
2023-04-25T13:38:17.740Z,9.40
2023-04-25T13:40:54.755Z,9.30
2023-04-25T13:43:35.014Z,9.30
2023-04-25T13:46:10.850Z,9.40
2023-04-25T13:48:52.709Z,9.40
2023-04-25T13:51:27.574Z,9.40
2023-04-25T13:54:01.268Z,9.40
2023-04-25T13:56:34.787Z,9.50
2023-04-25T13:59:09.801Z,9.50
2023-04-25T14:01:43.488Z,9.40
2023-04-25T14:04:17.042Z,9.50
2023-04-25T14:06:50.724Z,9.50
2023-04-25T14:09:26.653Z,9.50
2023-04-25T14:12:00.501Z,9.50
2023-04-25T14:14:35.515Z,9.50
2023-04-25T14:17:09.214Z,9.40
2023-04-25T14:19:44.424Z,9.40
2023-04-25T14:22:18.050Z,9.40
2023-04-25T14:24:51.574Z,9.40
2023-04-25T14:27:26.655Z,9.40
2023-04-25T14:30:02.934Z,9.40
2023-04-25T14:32:36.704Z,9.40
2023-04-25T14:35:11.201Z,9.40
2023-04-25T14:37:45.105Z,9.40
2023-04-25T14:40:18.689Z,9.40
2023-04-25T14:42:52.924Z,9.40
2023-04-25T14:45:28.305Z,9.40
2023-04-25T14:48:02.462Z,9.30
2023-04-25T14:50:38.928Z,9.20
2023-04-25T14:53:13.244Z,9.20
2023-04-25T14:55:46.845Z,9.20
2023-04-25T14:58:20.875Z,9.10
2023-04-25T15:00:55.838Z,9.10
2023-04-25T15:03:29.590Z,9.00
2023-04-25T15:06:03.280Z,9.00
2023-04-25T15:08:37.133Z,9.00
2023-04-25T15:11:12.045Z,8.90
2023-04-25T15:13:45.828Z,8.80
2023-04-25T15:16:20.808Z,8.80
2023-04-25T15:18:54.338Z,8.80
2023-04-25T15:21:28.120Z,8.90
2023-04-25T15:24:02.346Z,8.90
2023-04-25T15:26:35.893Z,9.00
2023-04-25T15:29:09.365Z,9.00
2023-04-25T15:31:44.333Z,9.10
2023-04-25T15:34:17.812Z,9.10
2023-04-25T15:36:51.326Z,9.20
2023-04-25T15:39:24.830Z,9.20
2023-04-25T15:41:59.109Z,9.20
2023-04-25T15:44:32.573Z,9.30
2023-04-25T15:47:07.733Z,9.30
2023-04-25T15:49:41.299Z,9.30
2023-04-25T15:52:14.769Z,9.30
2023-04-25T15:54:48.563Z,9.30
2023-04-25T15:57:22.111Z,9.10
2023-04-25T15:59:56.576Z,9.00
2023-04-25T16:02:31.875Z,9.00
2023-04-25T16:05:06.281Z,9.00
2023-04-25T16:07:40.990Z,9.00
2023-04-25T16:10:26.606Z,9.00
2023-04-25T16:13:04.086Z,9.00
2023-04-25T16:15:38.084Z,9.10
2023-04-25T16:18:13.178Z,9.10
2023-04-25T16:20:46.713Z,9.10
2023-04-25T16:23:20.420Z,9.20
2023-04-25T16:25:54.963Z,9.20
2023-04-25T16:28:28.522Z,9.10
2023-04-25T16:31:02.556Z,9.10
2023-04-25T16:33:37.469Z,9.00
2023-04-25T16:36:13.006Z,9.00
2023-04-25T16:38:46.495Z,9.10
2023-04-25T16:41:20.081Z,9.10
2023-04-25T16:43:53.627Z,9.10
2023-04-25T16:46:27.340Z,9.10
2023-04-25T16:49:02.443Z,9.10
2023-04-25T16:51:36.228Z,9.10
2023-04-25T16:54:09.963Z,9.00
2023-04-25T16:56:43.646Z,8.90
2023-04-25T16:59:17.227Z,8.80
2023-04-25T17:01:50.969Z,8.80
2023-04-25T17:04:26.165Z,8.70
2023-04-25T17:06:59.910Z,8.60
2023-04-25T17:09:33.455Z,8.60
2023-04-25T17:12:08.129Z,8.60
2023-04-25T17:14:41.806Z,8.60
2023-04-25T17:17:15.358Z,8.60
2023-04-25T17:19:50.259Z,8.60
2023-04-25T17:22:24.004Z,8.60
2023-04-25T17:24:57.696Z,8.60
2023-04-25T17:27:31.778Z,8.50
2023-04-25T17:30:06.008Z,8.50
2023-04-25T17:32:39.693Z,8.40
2023-04-25T17:35:15.738Z,8.40
2023-04-25T17:37:50.466Z,8.30
2023-04-25T17:40:24.048Z,8.30
2023-04-25T17:42:57.798Z,8.20
2023-04-25T17:45:34.878Z,8.30
2023-04-25T17:48:08.547Z,8.20
2023-04-25T17:50:43.541Z,8.20
2023-04-25T17:53:17.568Z,8.20
2023-04-25T17:55:51.543Z,8.20
2023-04-25T17:58:25.330Z,8.10
2023-04-25T18:00:58.945Z,8.10
2023-04-25T18:03:32.937Z,8.00
2023-04-25T18:06:08.130Z,8.00
2023-04-25T18:08:42.169Z,7.90
2023-04-25T18:11:16.217Z,7.90
2023-04-25T18:13:50.103Z,7.70
2023-04-25T18:16:23.989Z,7.70
2023-04-25T18:19:05.315Z,7.60
2023-04-25T18:21:41.253Z,7.50
2023-04-25T18:24:17.781Z,7.40
2023-04-25T18:26:53.768Z,7.30
2023-04-25T18:29:33.635Z,7.30
2023-04-25T18:32:08.181Z,7.20
2023-04-25T18:34:43.928Z,7.10
2023-04-25T18:37:19.791Z,7.10
2023-04-25T18:39:53.339Z,7.00
2023-04-25T18:42:26.962Z,6.90
2023-04-25T18:45:00.633Z,6.90
2023-04-25T18:47:34.338Z,6.80
2023-04-25T18:50:09.212Z,6.80
2023-04-25T18:52:44.534Z,6.60
2023-04-25T18:55:18.345Z,6.60
2023-04-25T18:57:52.212Z,6.50
2023-04-25T19:00:25.807Z,6.40
2023-04-25T19:03:03.391Z,6.30
2023-04-25T19:05:37.516Z,6.20
2023-04-25T19:08:12.848Z,6.10
2023-04-25T19:10:46.597Z,6.00
2023-04-25T19:13:20.564Z,6.00
2023-04-25T19:15:54.281Z,5.90
2023-04-25T19:18:27.930Z,5.80
2023-04-25T19:21:01.869Z,5.80
2023-04-25T19:23:37.116Z,5.70
2023-04-25T19:26:10.858Z,5.60
2023-04-25T19:28:44.902Z,5.60
2023-04-25T19:31:19.111Z,5.50
2023-04-25T19:33:53.079Z,5.40
2023-04-25T19:36:27.920Z,5.40
2023-04-25T19:39:04.473Z,5.30
2023-04-25T19:41:39.343Z,5.20
2023-04-25T19:44:13.101Z,5.10
2023-04-25T19:46:48.961Z,5.10
2023-04-25T19:49:22.625Z,5.10
2023-04-25T19:51:56.257Z,5.10
2023-04-25T19:54:31.291Z,5.00
2023-04-25T19:57:04.907Z,5.00
2023-04-25T19:59:38.624Z,4.90
2023-04-25T20:02:12.108Z,4.90
2023-04-25T20:04:46.182Z,4.90
2023-04-25T20:07:21.750Z,4.80
2023-04-25T20:09:56.610Z,4.80
2023-04-25T20:12:30.077Z,4.80
2023-04-25T20:15:03.549Z,4.70
2023-04-25T20:17:38.118Z,4.70
2023-04-25T20:20:12.742Z,4.70
2023-04-25T20:22:46.433Z,4.70
2023-04-25T20:25:21.302Z,4.60
2023-04-25T20:27:54.778Z,4.60
2023-04-25T20:30:28.297Z,4.60
2023-04-25T20:33:03.306Z,4.60
2023-04-25T20:35:36.952Z,4.60
2023-04-25T20:38:10.424Z,4.60
2023-04-25T20:40:45.340Z,4.50
2023-04-25T20:43:19.874Z,4.60
2023-04-25T20:45:54.927Z,4.60
2023-04-25T20:48:28.565Z,4.60
2023-04-25T20:51:02.064Z,4.70
2023-04-25T20:53:35.646Z,4.60
2023-04-25T20:56:12.952Z,4.70
2023-04-25T20:58:46.424Z,4.70
2023-04-25T21:01:20.243Z,4.70
2023-04-25T21:03:53.907Z,4.70
2023-04-25T21:06:28.811Z,4.80
2023-04-25T21:09:02.487Z,4.80
2023-04-25T21:11:38.449Z,4.80
2023-04-25T21:14:12.009Z,4.80
2023-04-25T21:16:46.201Z,4.80
2023-04-25T21:19:19.730Z,4.80
2023-04-25T21:21:53.310Z,4.90
2023-04-25T21:24:27.799Z,4.90
2023-04-25T21:27:02.706Z,4.90
2023-04-25T21:29:36.167Z,4.90
2023-04-25T21:32:10.473Z,4.90
2023-04-25T21:34:44.320Z,4.90
2023-04-25T21:37:17.958Z,4.90
2023-04-25T21:39:51.563Z,5.00
2023-04-25T21:42:26.438Z,5.00
2023-04-25T21:44:59.911Z,5.00
2023-04-25T21:47:34.605Z,5.00
2023-04-25T21:50:09.306Z,5.00
2023-04-25T21:52:43.104Z,5.00
2023-04-25T21:55:16.916Z,5.00
2023-04-25T21:57:53.115Z,5.00
2023-04-25T22:00:27.689Z,5.00
2023-04-25T22:03:01.576Z,5.10
2023-04-25T22:05:35.538Z,5.10
2023-04-25T22:08:09.763Z,5.10
2023-04-25T22:10:43.259Z,5.10
2023-04-25T22:13:18.145Z,5.10
2023-04-25T22:15:51.908Z,5.10
2023-04-25T22:18:25.698Z,5.10
2023-04-25T22:20:59.203Z,5.10
2023-04-25T22:23:32.691Z,5.10
2023-04-25T22:26:06.529Z,5.10
2023-04-25T22:28:41.474Z,5.10
2023-04-25T22:31:15.384Z,5.00
2023-04-25T22:33:48.851Z,5.00
2023-04-25T22:36:24.001Z,5.00
2023-04-25T22:38:57.481Z,4.90
2023-04-25T22:41:30.951Z,4.90
2023-04-25T22:44:06.429Z,4.90
2023-04-25T22:46:39.903Z,4.90
2023-04-25T22:49:13.609Z,4.80
2023-04-25T22:51:49.008Z,4.90
2023-04-25T22:54:22.705Z,4.90
2023-04-25T22:56:56.415Z,4.90
2023-04-25T22:59:31.259Z,4.90
2023-04-25T23:02:04.869Z,4.90
2023-04-25T23:04:38.431Z,5.00
2023-04-25T23:07:13.349Z,5.00
2023-04-25T23:09:46.869Z,5.00
2023-04-25T23:12:20.330Z,5.10
2023-04-25T23:14:55.198Z,5.10
2023-04-25T23:17:29.227Z,5.10
2023-04-25T23:20:05.788Z,5.20
2023-04-25T23:22:39.540Z,5.30
2023-04-25T23:25:13.624Z,5.40
2023-04-25T23:27:47.555Z,5.50
2023-04-25T23:30:22.755Z,5.50
2023-04-25T23:32:56.446Z,5.60
2023-04-25T23:35:29.972Z,5.80
2023-04-25T23:38:04.105Z,5.90
2023-04-25T23:40:37.636Z,6.00
2023-04-25T23:43:11.090Z,6.10
2023-04-25T23:45:46.809Z,6.20
2023-04-25T23:48:20.325Z,6.20
2023-04-25T23:50:53.759Z,6.30
2023-04-25T23:53:27.220Z,6.30
2023-04-25T23:56:00.762Z,6.40
2023-04-25T23:58:34.294Z,6.40
